createdAt,value
2023-05-02T00:00:31.614Z,99355.45
2023-05-02T00:01:19.875Z,99356.52
2023-05-02T00:01:53.765Z,99357.88
2023-05-02T00:02:28.335Z,99356.40
2023-05-02T00:03:02.028Z,99352.64
2023-05-02T00:03:35.520Z,99359.02
2023-05-02T00:04:08.884Z,99354.11
2023-05-02T00:04:42.293Z,99354.17
2023-05-02T00:05:15.528Z,99357.33
2023-05-02T00:05:48.695Z,99355.09
2023-05-02T00:06:22.126Z,99357.70
2023-05-02T00:06:55.619Z,99352.36
2023-05-02T00:07:28.931Z,99355.33
2023-05-02T00:08:02.110Z,99353.79
2023-05-02T00:08:35.262Z,99352.14
2023-05-02T00:09:09.042Z,99351.80
2023-05-02T00:09:42.455Z,99357.64
2023-05-02T00:10:15.692Z,99351.48
2023-05-02T00:10:49.341Z,99351.92
2023-05-02T00:11:23.101Z,99352.61
2023-05-02T00:11:56.234Z,99350.16
2023-05-02T00:12:29.473Z,99352.38
2023-05-02T00:13:02.708Z,99352.11
2023-05-02T00:13:35.877Z,99348.42
2023-05-02T00:14:08.951Z,99345.84
2023-05-02T00:14:42.082Z,99348.49
2023-05-02T00:15:15.469Z,99349.92
2023-05-02T00:15:49.125Z,99350.78
2023-05-02T00:16:22.528Z,99350.48
2023-05-02T00:16:55.792Z,99350.42
2023-05-02T00:17:28.797Z,99348.17
2023-05-02T00:18:02.109Z,99351.66
2023-05-02T00:18:35.561Z,99352.16
2023-05-02T00:19:08.678Z,99351.67
2023-05-02T00:19:41.894Z,99350.30
2023-05-02T00:20:15.078Z,99348.33
2023-05-02T00:20:48.308Z,99353.30
2023-05-02T00:21:21.631Z,99349.08
2023-05-02T00:21:54.808Z,99353.10
2023-05-02T00:22:28.575Z,99357.51
2023-05-02T00:23:01.916Z,99350.81
2023-05-02T00:23:35.588Z,99353.82
2023-05-02T00:24:08.752Z,99353.35
2023-05-02T00:24:41.933Z,99354.93
2023-05-02T00:25:17.373Z,99350.56
2023-05-02T00:25:51.075Z,99354.64
2023-05-02T00:26:24.529Z,99353.23
2023-05-02T00:26:57.567Z,99353.02
2023-05-02T00:27:31.802Z,99353.84
2023-05-02T00:28:05.032Z,99353.98
2023-05-02T00:28:38.162Z,99356.07
2023-05-02T00:29:15.571Z,99354.96
2023-05-02T00:29:48.646Z,99354.63
2023-05-02T00:30:21.899Z,99352.37
2023-05-02T00:30:55.071Z,99356.66
2023-05-02T00:31:28.404Z,99355.06
2023-05-02T00:32:01.916Z,99351.70
2023-05-02T00:32:35.727Z,99357.58
2023-05-02T00:33:09.066Z,99356.95
2023-05-02T00:33:42.373Z,99357.77
2023-05-02T00:34:15.633Z,99353.45
2023-05-02T00:34:48.913Z,99354.59
2023-05-02T00:35:22.054Z,99354.30
2023-05-02T00:35:55.240Z,99353.84
2023-05-02T00:36:28.644Z,99352.81
2023-05-02T00:37:01.921Z,99352.44
2023-05-02T00:37:35.531Z,99352.89
2023-05-02T00:38:08.902Z,99354.30
2023-05-02T00:38:42.072Z,99355.55
2023-05-02T00:39:15.271Z,99359.52
2023-05-02T00:39:48.434Z,99358.44
2023-05-02T00:40:21.674Z,99359.58
2023-05-02T00:40:54.771Z,99351.30
2023-05-02T00:41:27.726Z,99353.11
2023-05-02T00:42:01.724Z,99351.97
2023-05-02T00:42:36.678Z,99354.61
2023-05-02T00:43:09.919Z,99355.10
2023-05-02T00:43:43.152Z,99355.01
2023-05-02T00:44:16.737Z,99355.92
2023-05-02T00:44:49.989Z,99353.86
2023-05-02T00:45:23.491Z,99354.04
2023-05-02T00:45:56.786Z,99352.76
2023-05-02T00:46:30.153Z,99352.71
2023-05-02T00:47:03.370Z,99351.73
2023-05-02T00:47:36.779Z,99350.40
2023-05-02T00:48:10.458Z,99352.89
2023-05-02T00:48:45.337Z,99354.20
2023-05-02T00:49:18.449Z,99353.40
2023-05-02T00:49:51.772Z,99352.80
2023-05-02T00:50:27.015Z,99355.13
2023-05-02T00:51:02.865Z,99351.84
2023-05-02T00:51:36.161Z,99351.31
2023-05-02T00:52:09.433Z,99354.65
2023-05-02T00:52:42.522Z,99353.92
2023-05-02T00:53:15.881Z,99352.21
2023-05-02T00:53:49.473Z,99353.40
2023-05-02T00:54:22.818Z,99356.02
2023-05-02T00:54:56.713Z,99354.20
2023-05-02T00:55:29.933Z,99356.86
2023-05-02T00:56:03.624Z,99354.34
2023-05-02T00:56:37.192Z,99351.54
2023-05-02T00:57:10.354Z,99354.17
2023-05-02T00:57:43.878Z,99354.17
2023-05-02T00:58:18.733Z,99353.73
2023-05-02T00:58:52.108Z,99350.99
2023-05-02T00:59:25.969Z,99351.10
2023-05-02T00:59:59.446Z,99349.17
2023-05-02T01:00:56.087Z,99346.69
2023-05-02T01:01:37.162Z,99349.71
2023-05-02T01:02:29.048Z,99350.44
2023-05-02T01:03:41.372Z,99347.08
2023-05-02T01:04:40.827Z,99348.27
2023-05-02T01:05:21.360Z,99348.99
2023-05-02T01:06:05.132Z,99350.09
2023-05-02T01:06:53.507Z,99349.58
2023-05-02T01:07:43.834Z,99349.73
2023-05-02T01:08:16.919Z,99352.36
2023-05-02T01:08:56.209Z,99352.55
2023-05-02T01:09:35.974Z,99355.33
2023-05-02T01:10:18.858Z,99353.73
2023-05-02T01:11:07.256Z,99349.54
2023-05-02T01:12:04.162Z,99346.87
2023-05-02T01:12:46.033Z,99348.15
2023-05-02T01:13:24.653Z,99349.92
2023-05-02T01:13:59.839Z,99350.83
2023-05-02T01:14:41.279Z,99347.92
2023-05-02T01:15:19.447Z,99351.73
2023-05-02T01:15:53.946Z,99351.94
2023-05-02T01:16:28.483Z,99349.30
2023-05-02T01:17:06.705Z,99351.38
2023-05-02T01:17:41.700Z,99345.51
2023-05-02T01:18:18.787Z,99349.59
2023-05-02T01:18:52.677Z,99345.96
2023-05-02T01:19:29.629Z,99348.90
2023-05-02T01:20:05.239Z,99350.63
2023-05-02T01:20:42.046Z,99349.04
2023-05-02T01:21:15.322Z,99347.56
2023-05-02T01:21:49.371Z,99347.40
2023-05-02T01:22:24.594Z,99349.44
2023-05-02T01:23:00.782Z,99349.29
2023-05-02T01:23:53.470Z,99353.56
2023-05-02T01:24:29.865Z,99349.58
2023-05-02T01:25:18.003Z,99349.95
2023-05-02T01:25:53.957Z,99351.91
2023-05-02T01:26:29.904Z,99348.26
2023-05-02T01:27:03.169Z,99348.71
2023-05-02T01:27:55.122Z,99346.76
2023-05-02T01:28:47.074Z,99348.05
2023-05-02T01:29:20.862Z,99344.40
2023-05-02T01:29:56.947Z,99346.57
2023-05-02T01:30:33.626Z,99343.98
2023-05-02T01:31:07.535Z,99341.58
2023-05-02T01:31:42.339Z,99341.11
2023-05-02T01:32:16.648Z,99338.80
2023-05-02T01:32:51.827Z,99340.70
2023-05-02T01:33:27.225Z,99343.04
2023-05-02T01:34:01.089Z,99344.71
2023-05-02T01:34:36.524Z,99343.05
2023-05-02T01:35:11.414Z,99341.23
2023-05-02T01:35:46.712Z,99336.16
2023-05-02T01:36:19.979Z,99338.88
2023-05-02T01:36:55.219Z,99336.56
2023-05-02T01:37:31.058Z,99335.32
2023-05-02T01:38:06.349Z,99336.80
2023-05-02T01:38:40.196Z,99338.27
2023-05-02T01:39:14.790Z,99342.92
2023-05-02T01:39:50.071Z,99334.00
2023-05-02T01:40:23.396Z,99332.20
2023-05-02T01:40:58.161Z,99334.27
2023-05-02T01:41:32.195Z,99333.25
2023-05-02T01:42:05.577Z,99332.23
2023-05-02T01:42:39.622Z,99332.24
2023-05-02T01:43:16.622Z,99332.23
2023-05-02T01:43:49.937Z,99327.66
2023-05-02T01:44:23.762Z,99331.11
2023-05-02T01:44:58.024Z,99332.45
2023-05-02T01:45:31.483Z,99328.27
2023-05-02T01:46:05.241Z,99326.64
2023-05-02T01:46:40.216Z,99328.25
2023-05-02T01:47:13.958Z,99328.38
2023-05-02T01:47:48.980Z,99330.44
2023-05-02T01:48:22.923Z,99326.83
2023-05-02T01:48:58.315Z,99323.75
2023-05-02T01:49:33.232Z,99324.20
2023-05-02T01:50:08.343Z,99325.52
2023-05-02T01:50:42.276Z,99324.44
2023-05-02T01:51:18.912Z,99328.40
2023-05-02T01:51:53.182Z,99326.83
2023-05-02T01:52:27.613Z,99325.77
2023-05-02T01:53:02.092Z,99325.13
2023-05-02T01:53:35.844Z,99327.35
2023-05-02T01:54:09.309Z,99329.64
2023-05-02T01:54:42.912Z,99325.27
2023-05-02T01:55:17.046Z,99323.45
2023-05-02T01:55:51.159Z,99325.73
2023-05-02T01:56:25.530Z,99321.52
2023-05-02T01:56:58.856Z,99324.13
2023-05-02T01:57:32.722Z,99328.30
2023-05-02T01:58:06.840Z,99319.08
2023-05-02T01:58:40.933Z,99319.71
2023-05-02T01:59:16.729Z,99324.08
2023-05-02T01:59:50.513Z,99322.73
2023-05-02T02:00:25.110Z,99323.91
2023-05-02T02:01:00.261Z,99322.14
2023-05-02T02:01:35.656Z,99321.31
2023-05-02T02:02:09.536Z,99319.97
2023-05-02T02:02:43.896Z,99320.65
2023-05-02T02:03:18.479Z,99322.28
2023-05-02T02:03:52.950Z,99322.94
2023-05-02T02:04:27.216Z,99322.05
2023-05-02T02:05:01.561Z,99317.41
2023-05-02T02:05:35.347Z,99320.19
2023-05-02T02:06:09.398Z,99322.28
2023-05-02T02:06:44.679Z,99321.07
2023-05-02T02:07:18.023Z,99324.07
2023-05-02T02:07:51.123Z,99321.30
2023-05-02T02:08:25.097Z,99321.20
2023-05-02T02:08:58.388Z,99322.51
2023-05-02T02:09:31.764Z,99320.80
2023-05-02T02:10:05.240Z,99319.76
2023-05-02T02:10:41.309Z,99322.05
2023-05-02T02:11:17.218Z,99320.50
2023-05-02T02:11:54.100Z,99320.73
2023-05-02T02:12:39.023Z,99324.10
2023-05-02T02:13:19.014Z,99323.94
2023-05-02T02:13:55.583Z,99321.52
2023-05-02T02:14:32.686Z,99323.23
2023-05-02T02:15:20.079Z,99318.86
2023-05-02T02:15:58.075Z,99322.96
2023-05-02T02:16:33.198Z,99318.54
2023-05-02T02:17:12.568Z,99317.08
2023-05-02T02:17:45.679Z,99322.23
2023-05-02T02:18:21.942Z,99319.20
2023-05-02T02:18:56.786Z,99318.79
2023-05-02T02:19:30.440Z,99316.23
2023-05-02T02:20:05.697Z,99316.78
2023-05-02T02:20:40.858Z,99317.05
2023-05-02T02:21:17.027Z,99318.17
2023-05-02T02:21:51.343Z,99315.80
2023-05-02T02:22:26.856Z,99314.86
2023-05-02T02:23:02.068Z,99318.39
2023-05-02T02:23:36.047Z,99318.20
2023-05-02T02:24:10.085Z,99317.95
2023-05-02T02:24:44.073Z,99317.53
2023-05-02T02:25:17.927Z,99318.23
2023-05-02T02:25:51.542Z,99313.84
2023-05-02T02:26:24.864Z,99318.37
2023-05-02T02:26:58.196Z,99317.70
2023-05-02T02:27:31.459Z,99315.18
2023-05-02T02:28:04.969Z,99318.21
2023-05-02T02:28:38.698Z,99315.30
2023-05-02T02:29:12.436Z,99318.10
2023-05-02T02:29:45.782Z,99317.67
2023-05-02T02:30:18.872Z,99317.56
2023-05-02T02:30:52.087Z,99316.87
2023-05-02T02:31:30.577Z,99321.41
2023-05-02T02:32:03.912Z,99318.20
2023-05-02T02:32:37.073Z,99317.24
2023-05-02T02:33:10.279Z,99317.98
2023-05-02T02:33:43.958Z,99319.54
2023-05-02T02:34:17.070Z,99318.95
2023-05-02T02:34:50.668Z,99317.86
2023-05-02T02:35:23.969Z,99319.27
2023-05-02T02:36:13.602Z,99318.68
2023-05-02T02:36:46.851Z,99319.48
2023-05-02T02:37:20.804Z,99320.69
2023-05-02T02:38:10.761Z,99321.11
2023-05-02T02:39:02.810Z,99319.16
2023-05-02T02:39:47.972Z,99321.02
2023-05-02T02:40:31.759Z,99318.16
2023-05-02T02:41:17.261Z,99321.77
2023-05-02T02:41:56.089Z,99323.34
2023-05-02T02:42:45.631Z,99321.54
2023-05-02T02:43:27.809Z,99322.89
2023-05-02T02:44:14.457Z,99320.77
2023-05-02T02:44:53.679Z,99322.11
2023-05-02T02:45:36.789Z,99323.81
2023-05-02T02:46:19.144Z,99322.14
2023-05-02T02:47:11.419Z,99324.29
2023-05-02T02:47:49.582Z,99322.92
2023-05-02T02:48:35.107Z,99323.02
2023-05-02T02:49:27.229Z,99324.07
2023-05-02T02:50:27.059Z,99326.09
2023-05-02T02:51:00.247Z,99323.85
2023-05-02T02:51:38.838Z,99324.15
2023-05-02T02:52:21.380Z,99326.82
2023-05-02T02:53:00.999Z,99325.41
2023-05-02T02:53:52.960Z,99325.19
2023-05-02T02:54:31.951Z,99326.92
2023-05-02T02:55:11.239Z,99326.91
2023-05-02T02:55:53.680Z,99331.04
2023-05-02T02:56:35.032Z,99327.98
2023-05-02T02:57:15.486Z,99329.99
2023-05-02T02:58:08.946Z,99331.59
2023-05-02T02:58:42.021Z,99330.95
2023-05-02T02:59:25.197Z,99332.80
2023-05-02T03:00:02.149Z,99334.34
2023-05-02T03:00:35.939Z,99333.78
2023-05-02T03:01:12.610Z,99331.63
2023-05-02T03:01:49.773Z,99332.60
2023-05-02T03:02:27.533Z,99335.80
2023-05-02T03:03:00.875Z,99334.09
2023-05-02T03:03:34.712Z,99335.52
2023-05-02T03:04:09.302Z,99337.58
2023-05-02T03:04:43.655Z,99337.70
2023-05-02T03:05:17.166Z,99335.23
2023-05-02T03:05:50.800Z,99343.40
2023-05-02T03:06:24.414Z,99334.91
2023-05-02T03:06:57.734Z,99340.94
2023-05-02T03:07:31.714Z,99342.10
2023-05-02T03:08:05.183Z,99338.86
2023-05-02T03:08:42.164Z,99339.54
2023-05-02T03:09:18.586Z,99341.03
2023-05-02T03:09:51.820Z,99341.55
2023-05-02T03:10:25.078Z,99345.41
2023-05-02T03:10:58.235Z,99342.59
2023-05-02T03:11:31.424Z,99347.33
2023-05-02T03:12:04.840Z,99344.62
2023-05-02T03:12:40.032Z,99341.66
2023-05-02T03:13:13.334Z,99344.11
2023-05-02T03:13:47.519Z,99346.29
2023-05-02T03:14:20.779Z,99345.70
2023-05-02T03:14:57.417Z,99345.03
2023-05-02T03:15:33.371Z,99347.11
2023-05-02T03:16:12.436Z,99345.88
2023-05-02T03:16:45.719Z,99344.59
2023-05-02T03:17:19.003Z,99346.84
2023-05-02T03:17:52.171Z,99347.01
2023-05-02T03:18:25.401Z,99347.98
2023-05-02T03:18:58.703Z,99347.24
2023-05-02T03:19:32.124Z,99346.88
2023-05-02T03:20:05.715Z,99347.52
2023-05-02T03:20:39.003Z,99348.75
2023-05-02T03:21:12.299Z,99348.70
2023-05-02T03:21:46.306Z,99348.63
2023-05-02T03:22:19.576Z,99349.40
2023-05-02T03:22:53.129Z,99350.28
2023-05-02T03:23:26.241Z,99350.20
2023-05-02T03:24:03.034Z,99348.58
2023-05-02T03:24:36.360Z,99346.83
2023-05-02T03:25:09.665Z,99351.43
2023-05-02T03:25:43.098Z,99349.67
2023-05-02T03:26:16.949Z,99346.84
2023-05-02T03:26:50.368Z,99348.73
2023-05-02T03:27:23.366Z,99347.42
2023-05-02T03:27:57.680Z,99346.92
2023-05-02T03:28:30.922Z,99349.08
2023-05-02T03:29:04.164Z,99350.42
2023-05-02T03:29:37.210Z,99350.06
2023-05-02T03:30:10.457Z,99347.46
2023-05-02T03:30:43.441Z,99348.25
2023-05-02T03:31:16.755Z,99347.70
2023-05-02T03:31:50.143Z,99347.05
2023-05-02T03:32:23.340Z,99345.23
2023-05-02T03:32:57.302Z,99350.23
2023-05-02T03:33:30.548Z,99346.02
2023-05-02T03:34:03.684Z,99349.23
2023-05-02T03:34:37.162Z,99348.67
2023-05-02T03:35:10.508Z,99347.79
2023-05-02T03:35:43.680Z,99346.02
2023-05-02T03:36:16.957Z,99347.71
2023-05-02T03:36:50.281Z,99348.92
2023-05-02T03:37:23.469Z,99353.39
2023-05-02T03:37:56.805Z,99350.95
2023-05-02T03:38:30.686Z,99351.92
2023-05-02T03:39:03.934Z,99349.38
2023-05-02T03:39:37.169Z,99347.50
2023-05-02T03:40:10.490Z,99350.71
2023-05-02T03:40:43.928Z,99348.73
2023-05-02T03:41:17.158Z,99352.21
2023-05-02T03:41:50.177Z,99355.45
2023-05-02T03:42:23.283Z,99352.75
2023-05-02T03:42:56.355Z,99352.27
2023-05-02T03:43:29.520Z,99350.56
2023-05-02T03:44:02.760Z,99353.66
2023-05-02T03:44:35.974Z,99352.83
2023-05-02T03:45:09.399Z,99355.25
2023-05-02T03:45:42.641Z,99354.33
2023-05-02T03:46:16.034Z,99355.41
2023-05-02T03:46:49.339Z,99356.75
2023-05-02T03:47:22.660Z,99356.63
2023-05-02T03:47:56.143Z,99358.27
2023-05-02T03:48:29.622Z,99359.74
2023-05-02T03:49:02.716Z,99359.48
2023-05-02T03:49:36.417Z,99359.02
2023-05-02T03:50:09.862Z,99360.41
2023-05-02T03:50:43.855Z,99359.96
2023-05-02T03:51:17.541Z,99363.49
2023-05-02T03:51:50.853Z,99363.95
2023-05-02T03:52:23.940Z,99361.33
2023-05-02T03:52:57.343Z,99362.26
2023-05-02T03:53:31.805Z,99363.64
2023-05-02T03:54:05.110Z,99364.16
2023-05-02T03:54:38.352Z,99361.70
2023-05-02T03:55:11.952Z,99366.36
2023-05-02T03:55:45.986Z,99365.86
2023-05-02T03:56:22.056Z,99366.26
2023-05-02T03:56:55.358Z,99365.91
2023-05-02T03:57:31.283Z,99366.46
2023-05-02T03:58:04.687Z,99364.26
2023-05-02T03:58:37.906Z,99365.52
2023-05-02T03:59:11.352Z,99364.55
2023-05-02T03:59:45.999Z,99365.12
2023-05-02T04:00:19.648Z,99367.67
2023-05-02T04:00:55.651Z,99363.88
2023-05-02T04:01:29.142Z,99366.39
2023-05-02T04:02:02.323Z,99368.70
2023-05-02T04:02:35.825Z,99368.64
2023-05-02T04:03:09.272Z,99366.04
2023-05-02T04:03:43.186Z,99367.17
2023-05-02T04:04:16.755Z,99367.94
2023-05-02T04:04:49.957Z,99370.04
2023-05-02T04:05:23.183Z,99369.11
2023-05-02T04:05:56.461Z,99369.41
2023-05-02T04:06:30.521Z,99365.77
2023-05-02T04:07:04.096Z,99370.39
2023-05-02T04:07:37.232Z,99366.27
2023-05-02T04:08:11.009Z,99366.39
2023-05-02T04:08:44.134Z,99363.39
2023-05-02T04:09:17.434Z,99367.88
2023-05-02T04:09:50.606Z,99368.20
2023-05-02T04:10:23.643Z,99363.84
2023-05-02T04:10:56.757Z,99363.76
2023-05-02T04:11:29.986Z,99367.80
2023-05-02T04:12:02.949Z,99364.42
2023-05-02T04:12:36.434Z,99366.23
2023-05-02T04:13:09.602Z,99367.63
2023-05-02T04:13:42.906Z,99370.09
2023-05-02T04:14:16.046Z,99368.34
2023-05-02T04:14:49.380Z,99364.63
2023-05-02T04:15:22.610Z,99371.11
2023-05-02T04:15:55.985Z,99369.39
2023-05-02T04:16:29.758Z,99368.38
2023-05-02T04:17:02.941Z,99368.84
2023-05-02T04:17:36.228Z,99365.81
2023-05-02T04:18:09.493Z,99369.27
2023-05-02T04:18:42.581Z,99367.98
2023-05-02T04:19:16.554Z,99372.59
2023-05-02T04:19:49.718Z,99369.88
2023-05-02T04:20:23.035Z,99367.52
2023-05-02T04:20:56.342Z,99370.89
2023-05-02T04:21:29.483Z,99369.36
2023-05-02T04:22:03.633Z,99366.50
2023-05-02T04:22:36.835Z,99368.95
2023-05-02T04:23:10.098Z,99367.79
2023-05-02T04:23:43.369Z,99365.80
2023-05-02T04:24:16.452Z,99364.30
2023-05-02T04:24:49.662Z,99364.23
2023-05-02T04:25:22.869Z,99363.90
2023-05-02T04:25:56.832Z,99368.77
2023-05-02T04:26:30.139Z,99362.83
2023-05-02T04:27:03.388Z,99365.11
2023-05-02T04:27:36.878Z,99361.33
2023-05-02T04:28:10.244Z,99366.16
2023-05-02T04:28:43.484Z,99365.11
2023-05-02T04:29:16.636Z,99369.50
2023-05-02T04:29:50.606Z,99365.05
2023-05-02T04:30:23.760Z,99368.08
2023-05-02T04:30:57.767Z,99365.89
2023-05-02T04:31:33.816Z,99370.45
2023-05-02T04:32:07.299Z,99369.09
2023-05-02T04:32:40.456Z,99368.64
2023-05-02T04:33:13.634Z,99370.91
2023-05-02T04:33:49.046Z,99366.84
2023-05-02T04:34:22.218Z,99370.03
2023-05-02T04:34:56.008Z,99369.44
2023-05-02T04:35:29.176Z,99374.23
2023-05-02T04:36:02.530Z,99371.85
2023-05-02T04:36:36.006Z,99373.48
2023-05-02T04:37:09.295Z,99370.83
2023-05-02T04:37:42.404Z,99370.83
2023-05-02T04:38:15.921Z,99372.67
2023-05-02T04:38:49.019Z,99372.08
2023-05-02T04:39:22.188Z,99372.25
2023-05-02T04:39:55.498Z,99371.87
2023-05-02T04:40:29.101Z,99375.23
2023-05-02T04:41:08.801Z,99373.79
2023-05-02T04:41:43.428Z,99371.60
2023-05-02T04:42:16.515Z,99373.28
2023-05-02T04:42:49.876Z,99370.32
2023-05-02T04:43:24.605Z,99372.44
2023-05-02T04:43:58.743Z,99377.68
2023-05-02T04:44:31.873Z,99372.89
2023-05-02T04:45:05.311Z,99373.39
2023-05-02T04:45:38.610Z,99374.88
2023-05-02T04:46:12.018Z,99373.77
2023-05-02T04:46:45.432Z,99378.31
2023-05-02T04:47:18.828Z,99377.81
2023-05-02T04:47:52.388Z,99375.98
2023-05-02T04:48:25.830Z,99376.77
2023-05-02T04:48:59.419Z,99378.20
2023-05-02T04:49:32.719Z,99378.63
2023-05-02T04:50:06.639Z,99380.03
2023-05-02T04:50:39.928Z,99378.50
2023-05-02T04:51:14.859Z,99379.66
2023-05-02T04:51:49.865Z,99375.68
2023-05-02T04:52:23.168Z,99380.04
2023-05-02T04:52:56.451Z,99381.45
2023-05-02T04:53:29.792Z,99381.41
2023-05-02T04:54:03.071Z,99382.36
2023-05-02T04:54:36.357Z,99379.09
2023-05-02T04:55:09.599Z,99381.45
2023-05-02T04:55:43.322Z,99380.86
2023-05-02T04:56:16.562Z,99382.89
2023-05-02T04:56:49.757Z,99383.77
2023-05-02T04:57:23.426Z,99382.61
2023-05-02T04:57:57.130Z,99381.83
2023-05-02T04:58:30.640Z,99386.58
2023-05-02T04:59:03.926Z,99387.60
2023-05-02T04:59:37.433Z,99388.36
2023-05-02T05:00:11.620Z,99389.90
2023-05-02T05:00:44.864Z,99392.72
2023-05-02T05:01:18.487Z,99387.95
2023-05-02T05:01:51.799Z,99391.54
2023-05-02T05:02:26.240Z,99393.65
2023-05-02T05:03:01.702Z,99395.20
2023-05-02T05:03:35.479Z,99394.52
2023-05-02T05:04:09.038Z,99392.42
2023-05-02T05:04:42.292Z,99396.08
2023-05-02T05:05:15.662Z,99396.65
2023-05-02T05:05:48.987Z,99395.86
2023-05-02T05:06:22.898Z,99391.80
2023-05-02T05:06:56.412Z,99399.34
2023-05-02T05:07:29.553Z,99396.77
2023-05-02T05:08:02.789Z,99397.63
2023-05-02T05:08:36.053Z,99403.15
2023-05-02T05:09:09.308Z,99400.48
2023-05-02T05:09:42.652Z,99399.46
2023-05-02T05:10:16.110Z,99395.40
2023-05-02T05:10:50.899Z,99396.23
2023-05-02T05:11:24.425Z,99394.46
2023-05-02T05:11:57.717Z,99397.02
2023-05-02T05:12:31.087Z,99393.24
2023-05-02T05:13:04.834Z,99397.02
2023-05-02T05:13:37.927Z,99391.67
2023-05-02T05:14:11.130Z,99395.80
2023-05-02T05:14:44.734Z,99395.89
2023-05-02T05:15:17.842Z,99394.45
2023-05-02T05:15:51.538Z,99395.14
2023-05-02T05:16:24.926Z,99393.63
2023-05-02T05:16:58.762Z,99392.70
2023-05-02T05:17:32.095Z,99396.14
2023-05-02T05:18:05.280Z,99397.96
2023-05-02T05:18:41.583Z,99396.94
2023-05-02T05:19:14.745Z,99398.45
2023-05-02T05:19:48.057Z,99398.45
2023-05-02T05:20:21.368Z,99400.55
2023-05-02T05:20:54.559Z,99396.98
2023-05-02T05:21:27.779Z,99397.64
2023-05-02T05:22:01.154Z,99395.41
2023-05-02T05:22:38.685Z,99395.24
2023-05-02T05:23:11.869Z,99393.86
2023-05-02T05:23:46.391Z,99393.86
2023-05-02T05:24:19.852Z,99394.64
2023-05-02T05:24:56.163Z,99395.23
2023-05-02T05:25:29.427Z,99390.55
2023-05-02T05:26:12.211Z,99394.52
2023-05-02T05:26:45.436Z,99393.05
2023-05-02T05:27:18.654Z,99394.11
2023-05-02T05:27:52.740Z,99396.04
2023-05-02T05:28:27.484Z,99391.96
2023-05-02T05:29:00.686Z,99395.77
2023-05-02T05:29:33.823Z,99392.27
2023-05-02T05:30:09.071Z,99392.59
2023-05-02T05:30:42.231Z,99392.16
2023-05-02T05:31:17.401Z,99395.09
2023-05-02T05:31:50.681Z,99394.27
2023-05-02T05:32:24.511Z,99394.68
2023-05-02T05:32:58.877Z,99395.90
2023-05-02T05:33:32.335Z,99395.64
2023-05-02T05:34:05.698Z,99397.77
2023-05-02T05:34:39.265Z,99397.90
2023-05-02T05:35:12.488Z,99397.60
2023-05-02T05:35:46.033Z,99397.19
2023-05-02T05:36:19.700Z,99400.80
2023-05-02T05:36:54.138Z,99400.39
2023-05-02T05:37:27.300Z,99398.11
2023-05-02T05:38:00.502Z,99401.41
2023-05-02T05:38:33.710Z,99403.98
2023-05-02T05:39:07.495Z,99403.31
2023-05-02T05:39:40.889Z,99400.52
2023-05-02T05:40:14.428Z,99403.34
2023-05-02T05:40:49.701Z,99400.58
2023-05-02T05:41:23.343Z,99401.10
2023-05-02T05:41:57.706Z,99403.09
2023-05-02T05:42:31.100Z,99404.14
2023-05-02T05:43:04.145Z,99399.63
2023-05-02T05:43:38.386Z,99399.39
2023-05-02T05:44:11.541Z,99399.59
2023-05-02T05:44:44.659Z,99401.97
2023-05-02T05:45:19.837Z,99403.80
2023-05-02T05:45:53.619Z,99399.13
2023-05-02T05:46:26.809Z,99401.89
2023-05-02T05:47:00.190Z,99402.75
2023-05-02T05:47:33.453Z,99405.08
2023-05-02T05:48:06.729Z,99404.21
2023-05-02T05:48:40.047Z,99404.02
2023-05-02T05:49:13.810Z,99408.15
2023-05-02T05:49:46.781Z,99408.79
2023-05-02T05:50:19.823Z,99410.23
2023-05-02T05:50:53.129Z,99407.41
2023-05-02T05:51:28.139Z,99409.27
2023-05-02T05:52:01.366Z,99407.83
2023-05-02T05:52:34.702Z,99406.95
2023-05-02T05:53:07.894Z,99406.38
2023-05-02T05:53:41.079Z,99407.92
2023-05-02T05:54:14.277Z,99408.48
2023-05-02T05:54:47.346Z,99404.92
2023-05-02T05:55:20.541Z,99408.00
2023-05-02T05:55:53.913Z,99410.08
2023-05-02T05:56:27.298Z,99410.10
2023-05-02T05:57:01.252Z,99409.30
2023-05-02T05:57:34.559Z,99409.30
2023-05-02T05:58:08.277Z,99409.69
2023-05-02T05:58:42.997Z,99410.58
2023-05-02T05:59:16.184Z,99412.22
2023-05-02T05:59:49.842Z,99409.84
2023-05-02T06:00:23.140Z,99411.34
2023-05-02T06:00:56.409Z,99412.70
2023-05-02T06:01:29.700Z,99407.30
2023-05-02T06:02:03.005Z,99410.45
2023-05-02T06:02:36.708Z,99413.84
2023-05-02T06:03:10.204Z,99411.91
2023-05-02T06:03:43.896Z,99415.86
2023-05-02T06:04:17.358Z,99410.65
2023-05-02T06:04:50.799Z,99412.61
2023-05-02T06:05:24.165Z,99415.13
2023-05-02T06:05:57.554Z,99413.27
2023-05-02T06:06:32.175Z,99415.38
2023-05-02T06:07:05.239Z,99414.52
2023-05-02T06:07:38.618Z,99410.36
2023-05-02T06:08:11.766Z,99416.10
2023-05-02T06:08:44.944Z,99417.87
2023-05-02T06:09:18.070Z,99416.30
2023-05-02T06:09:51.263Z,99416.59
2023-05-02T06:10:24.522Z,99414.21
2023-05-02T06:10:57.660Z,99414.80
2023-05-02T06:11:30.941Z,99414.14
2023-05-02T06:12:04.167Z,99417.89
2023-05-02T06:12:37.407Z,99416.87
2023-05-02T06:13:10.518Z,99413.25
2023-05-02T06:13:43.802Z,99413.63
2023-05-02T06:14:16.910Z,99413.60
2023-05-02T06:14:50.272Z,99413.41
2023-05-02T06:15:23.362Z,99412.15
2023-05-02T06:16:00.456Z,99417.91
2023-05-02T06:16:33.719Z,99414.60
2023-05-02T06:17:07.079Z,99414.64
2023-05-02T06:17:40.400Z,99417.48
2023-05-02T06:18:14.157Z,99421.31
2023-05-02T06:18:47.305Z,99416.21
2023-05-02T06:19:20.319Z,99414.86
2023-05-02T06:19:53.538Z,99418.20
2023-05-02T06:20:26.951Z,99414.73
2023-05-02T06:21:09.365Z,99416.75
2023-05-02T06:21:42.633Z,99415.63
2023-05-02T06:22:15.791Z,99417.79
2023-05-02T06:22:49.033Z,99417.78
2023-05-02T06:23:22.161Z,99420.52
2023-05-02T06:23:55.198Z,99418.55
2023-05-02T06:24:28.514Z,99419.30
2023-05-02T06:25:01.789Z,99417.67
2023-05-02T06:25:37.522Z,99419.39
2023-05-02T06:26:10.652Z,99421.53
2023-05-02T06:26:46.605Z,99419.48
2023-05-02T06:27:19.830Z,99418.79
2023-05-02T06:27:53.157Z,99416.75
2023-05-02T06:28:26.505Z,99418.86
2023-05-02T06:28:59.696Z,99415.95
2023-05-02T06:29:35.937Z,99417.26
2023-05-02T06:30:09.331Z,99422.07
2023-05-02T06:30:42.488Z,99416.75
2023-05-02T06:31:16.641Z,99414.35
2023-05-02T06:31:51.437Z,99414.27
2023-05-02T06:32:24.642Z,99416.30
2023-05-02T06:32:57.894Z,99415.89
2023-05-02T06:33:31.696Z,99416.80
2023-05-02T06:34:04.840Z,99421.56
2023-05-02T06:34:37.970Z,99422.43
2023-05-02T06:35:12.160Z,99423.27
2023-05-02T06:35:51.208Z,99424.80
2023-05-02T06:36:24.415Z,99421.70
2023-05-02T06:36:57.668Z,99427.20
2023-05-02T06:37:37.004Z,99424.92
2023-05-02T06:38:10.208Z,99425.34
2023-05-02T06:38:43.504Z,99426.70
2023-05-02T06:39:16.660Z,99425.83
2023-05-02T06:39:49.893Z,99421.98
2023-05-02T06:40:23.168Z,99430.45
2023-05-02T06:40:56.510Z,99429.50
2023-05-02T06:41:29.811Z,99427.89
2023-05-02T06:42:03.296Z,99425.55
2023-05-02T06:42:36.522Z,99428.98
2023-05-02T06:43:09.784Z,99425.11
2023-05-02T06:43:43.163Z,99424.40
2023-05-02T06:44:16.784Z,99424.31
2023-05-02T06:44:51.640Z,99424.38
2023-05-02T06:45:24.918Z,99424.64
2023-05-02T06:45:58.960Z,99419.40
2023-05-02T06:46:32.404Z,99416.23
2023-05-02T06:47:08.688Z,99423.59
2023-05-02T06:47:41.959Z,99420.08
2023-05-02T06:48:15.637Z,99421.35
2023-05-02T06:48:48.817Z,99423.66
2023-05-02T06:49:22.423Z,99424.13